sensor_id;sensor_type;location;lat;lon;timestamp;pressure;altitude;pressure_sealevel;temperature;humidity
39891;BME280;25564;53.312;9.790;2023-04-07T00:00:17;100997.69;;;5.70;52.61
39891;BME280;25564;53.312;9.790;2023-04-07T00:02:49;100957.09;;;5.41;53.28
39891;BME280;25564;53.312;9.790;2023-04-07T00:05:21;100932.44;;;5.25;53.33
39891;BME280;25564;53.312;9.790;2023-04-07T00:07:52;100994.03;;;5.50;53.32
39891;BME280;25564;53.312;9.790;2023-04-07T00:10:27;101008.06;;;5.52;53.14
39891;BME280;25564;53.312;9.790;2023-04-07T00:12:59;101008.94;;;5.51;53.14
39891;BME280;25564;53.312;9.790;2023-04-07T00:15:30;100998.34;;;5.40;53.44
39891;BME280;25564;53.312;9.790;2023-04-07T00:18:02;100966.59;;;5.16;53.69
39891;BME280;25564;53.312;9.790;2023-04-07T00:20:34;100997.38;;;5.29;53.93
39891;BME280;25564;53.312;9.790;2023-04-07T00:23:05;100961.28;;;5.10;53.40
39891;BME280;25564;53.312;9.790;2023-04-07T00:25:37;100962.94;;;5.00;53.15
39891;BME280;25564;53.312;9.790;2023-04-07T00:28:08;100915.28;;;4.65;54.02
39891;BME280;25564;53.312;9.790;2023-04-07T00:30:40;100976.09;;;4.99;54.13
39891;BME280;25564;53.312;9.790;2023-04-07T00:33:11;100957.56;;;4.86;54.61
39891;BME280;25564;53.312;9.790;2023-04-07T00:35:43;100987.47;;;4.99;54.38
39891;BME280;25564;53.312;9.790;2023-04-07T00:38:15;100980.38;;;4.89;54.61
39891;BME280;25564;53.312;9.790;2023-04-07T00:40:46;101009.41;;;5.01;54.35
39891;BME280;25564;53.312;9.790;2023-04-07T00:43:17;100960.06;;;4.73;55.38
39891;BME280;25564;53.312;9.790;2023-04-07T00:45:50;100994.34;;;4.85;55.05
39891;BME280;25564;53.312;9.790;2023-04-07T00:48:22;100990.84;;;4.84;54.67
39891;BME280;25564;53.312;9.790;2023-04-07T00:50:53;100989.00;;;4.76;55.03
39891;BME280;25564;53.312;9.790;2023-04-07T00:53:25;100966.94;;;4.62;54.27
39891;BME280;25564;53.312;9.790;2023-04-07T00:55:56;100985.44;;;4.71;55.27
39891;BME280;25564;53.312;9.790;2023-04-07T00:58:28;100988.06;;;4.71;54.57
39891;BME280;25564;53.312;9.790;2023-04-07T01:01:08;101005.66;;;4.78;54.98
39891;BME280;25564;53.312;9.790;2023-04-07T01:04:11;101001.16;;;4.65;55.09
39891;BME280;25564;53.312;9.790;2023-04-07T01:06:49;100986.13;;;4.54;55.06
39891;BME280;25564;53.312;9.790;2023-04-07T01:09:29;100951.78;;;4.36;55.37
39891;BME280;25564;53.312;9.790;2023-04-07T01:12:06;100953.47;;;4.33;54.46
39891;BME280;25564;53.312;9.790;2023-04-07T01:14:46;101009.88;;;4.62;55.63
39891;BME280;25564;53.312;9.790;2023-04-07T01:17:24;100986.97;;;4.52;55.63
39891;BME280;25564;53.312;9.790;2023-04-07T01:20:01;100995.69;;;4.48;55.49
39891;BME280;25564;53.312;9.790;2023-04-07T01:22:53;100983.38;;;4.42;55.27
39891;BME280;25564;53.312;9.790;2023-04-07T01:25:47;101008.84;;;4.48;56.17
39891;BME280;25564;53.312;9.790;2023-04-07T01:28:50;100972.69;;;4.28;55.73
39891;BME280;25564;53.312;9.790;2023-04-07T01:31:27;100972.53;;;4.16;55.31
39891;BME280;25564;53.312;9.790;2023-04-07T01:34:00;100992.81;;;4.28;56.02
39891;BME280;25564;53.312;9.790;2023-04-07T01:36:33;100968.19;;;4.15;56.31
39891;BME280;25564;53.312;9.790;2023-04-07T01:39:06;100995.50;;;4.33;55.95
39891;BME280;25564;53.312;9.790;2023-04-07T01:41:38;100906.44;;;3.78;55.82
39891;BME280;25564;53.312;9.790;2023-04-07T01:44:11;100987.47;;;4.19;55.76
39891;BME280;25564;53.312;9.790;2023-04-07T01:46:44;100998.88;;;4.22;56.53
39891;BME280;25564;53.312;9.790;2023-04-07T01:49:16;100999.81;;;4.27;56.53
39891;BME280;25564;53.312;9.790;2023-04-07T01:51:48;100974.19;;;4.07;57.11
39891;BME280;25564;53.312;9.790;2023-04-07T01:54:21;100985.59;;;4.07;56.47
39891;BME280;25564;53.312;9.790;2023-04-07T01:56:53;100996.13;;;4.10;56.55
39891;BME280;25564;53.312;9.790;2023-04-07T01:59:24;100969.63;;;3.90;56.16
39891;BME280;25564;53.312;9.790;2023-04-07T02:01:56;101006.56;;;4.06;56.73
39891;BME280;25564;53.312;9.790;2023-04-07T02:04:44;101004.72;;;3.99;57.31
39891;BME280;25564;53.312;9.790;2023-04-07T02:07:20;100919.09;;;3.43;57.52
39891;BME280;25564;53.312;9.790;2023-04-07T02:09:55;100992.28;;;3.85;57.62
39891;BME280;25564;53.312;9.790;2023-04-07T02:12:28;100999.34;;;3.89;57.68
39891;BME280;25564;53.312;9.790;2023-04-07T02:15:01;100941.94;;;3.50;57.38
39891;BME280;25564;53.312;9.790;2023-04-07T02:17:35;100967.53;;;3.68;56.80
39891;BME280;25564;53.312;9.790;2023-04-07T02:20:10;100994.81;;;3.79;57.03
39891;BME280;25564;53.312;9.790;2023-04-07T02:22:42;100934.81;;;3.43;57.12
39891;BME280;25564;53.312;9.790;2023-04-07T02:25:28;100909.19;;;3.25;57.82
39891;BME280;25564;53.312;9.790;2023-04-07T02:28:00;100961.19;;;3.52;57.43
39891;BME280;25564;53.312;9.790;2023-04-07T02:30:32;100989.41;;;3.67;57.90
39891;BME280;25564;53.312;9.790;2023-04-07T02:33:03;100994.59;;;3.63;57.60
39891;BME280;25564;53.312;9.790;2023-04-07T02:35:35;101000.72;;;3.63;57.69
39891;BME280;25564;53.312;9.790;2023-04-07T02:38:06;100968.84;;;3.39;58.66
39891;BME280;25564;53.312;9.790;2023-04-07T02:40:38;100992.59;;;3.48;57.79
39891;BME280;25564;53.312;9.790;2023-04-07T02:43:09;101006.72;;;3.56;58.09
39891;BME280;25564;53.312;9.790;2023-04-07T02:45:41;100931.63;;;3.05;58.08
39891;BME280;25564;53.312;9.790;2023-04-07T02:48:13;100995.03;;;3.36;58.08
39891;BME280;25564;53.312;9.790;2023-04-07T02:50:44;100945.56;;;3.03;58.49
39891;BME280;25564;53.312;9.790;2023-04-07T02:53:15;100964.06;;;3.12;58.32
39891;BME280;25564;53.312;9.790;2023-04-07T02:55:47;100986.00;;;3.18;59.17
39891;BME280;25564;53.312;9.790;2023-04-07T02:58:18;100949.81;;;2.94;58.51
39891;BME280;25564;53.312;9.790;2023-04-07T03:00:50;100992.19;;;3.22;59.05
39891;BME280;25564;53.312;9.790;2023-04-07T03:03:21;101000.16;;;3.28;59.09
39891;BME280;25564;53.312;9.790;2023-04-07T03:05:53;100996.50;;;3.18;59.35
39891;BME280;25564;53.312;9.790;2023-04-07T03:08:25;101012.34;;;3.24;59.25
39891;BME280;25564;53.312;9.790;2023-04-07T03:10:57;101001.66;;;3.14;59.19
39891;BME280;25564;53.312;9.790;2023-04-07T03:13:29;101000.72;;;3.09;59.44
39891;BME280;25564;53.312;9.790;2023-04-07T03:16:01;101030.66;;;3.23;59.28
39891;BME280;25564;53.312;9.790;2023-04-07T03:18:32;101031.50;;;3.20;59.56
39891;BME280;25564;53.312;9.790;2023-04-07T03:21:04;101019.00;;;3.04;59.55
39891;BME280;25564;53.312;9.790;2023-04-07T03:23:35;101013.81;;;3.07;60.17
39891;BME280;25564;53.312;9.790;2023-04-07T03:26:07;101008.41;;;2.98;60.04
39891;BME280;25564;53.312;9.790;2023-04-07T03:28:38;101039.16;;;3.07;60.42
39891;BME280;25564;53.312;9.790;2023-04-07T03:31:10;101015.25;;;2.90;59.48
39891;BME280;25564;53.312;9.790;2023-04-07T03:33:42;101033.81;;;3.02;60.50
39891;BME280;25564;53.312;9.790;2023-04-07T03:36:13;101010.06;;;2.93;59.94
39891;BME280;25564;53.312;9.790;2023-04-07T03:38:46;101018.75;;;2.90;60.30
39891;BME280;25564;53.312;9.790;2023-04-07T03:41:17;101016.88;;;2.83;59.85
39891;BME280;25564;53.312;9.790;2023-04-07T03:43:48;101018.63;;;2.83;60.32
39891;BME280;25564;53.312;9.790;2023-04-07T03:46:20;101039.75;;;2.92;60.56
39891;BME280;25564;53.312;9.790;2023-04-07T03:48:52;101015.84;;;2.75;60.38
39891;BME280;25564;53.312;9.790;2023-04-07T03:51:24;101022.91;;;2.79;60.51
39891;BME280;25564;53.312;9.790;2023-04-07T03:53:55;100939.88;;;2.30;60.58
39891;BME280;25564;53.312;9.790;2023-04-07T03:56:27;101028.06;;;2.75;60.68
39891;BME280;25564;53.312;9.790;2023-04-07T03:58:59;100970.50;;;2.34;60.74
39891;BME280;25564;53.312;9.790;2023-04-07T04:01:30;101030.47;;;2.64;60.58
39891;BME280;25564;53.312;9.790;2023-04-07T04:04:02;101021.69;;;2.60;60.87
39891;BME280;25564;53.312;9.790;2023-04-07T04:06:34;101028.44;;;2.49;61.54
39891;BME280;25564;53.312;9.790;2023-04-07T04:09:05;101031.97;;;2.51;60.73
39891;BME280;25564;53.312;9.790;2023-04-07T04:11:37;101026.56;;;2.44;61.17
39891;BME280;25564;53.312;9.790;2023-04-07T04:14:08;101037.97;;;2.46;61.55
39891;BME280;25564;53.312;9.790;2023-04-07T04:16:40;101024.53;;;2.29;61.12
39891;BME280;25564;53.312;9.790;2023-04-07T04:19:11;101067.75;;;2.51;61.55
39891;BME280;25564;53.312;9.790;2023-04-07T04:21:43;101011.19;;;2.17;61.61
39891;BME280;25564;53.312;9.790;2023-04-07T04:24:14;101049.06;;;2.34;61.62
39891;BME280;25564;53.312;9.790;2023-04-07T04:26:46;100992.50;;;1.99;61.62
39891;BME280;25564;53.312;9.790;2023-04-07T04:29:17;101064.00;;;2.38;61.97
39891;BME280;25564;53.312;9.790;2023-04-07T04:31:48;101046.25;;;2.25;61.80
39891;BME280;25564;53.312;9.790;2023-04-07T04:34:20;100960.50;;;1.71;61.86
39891;BME280;25564;53.312;9.790;2023-04-07T04:36:51;101044.34;;;2.18;61.81
39891;BME280;25564;53.312;9.790;2023-04-07T04:39:23;101057.47;;;2.19;62.18
39891;BME280;25564;53.312;9.790;2023-04-07T04:41:54;101062.69;;;2.18;62.05
39891;BME280;25564;53.312;9.790;2023-04-07T04:44:26;100998.16;;;1.79;61.78
39891;BME280;25564;53.312;9.790;2023-04-07T04:47:00;101082.06;;;2.26;62.47
39891;BME280;25564;53.312;9.790;2023-04-07T04:49:31;100977.81;;;1.66;62.48
39891;BME280;25564;53.312;9.790;2023-04-07T04:52:03;101011.19;;;1.76;62.04
39891;BME280;25564;53.312;9.790;2023-04-07T04:54:35;101069.56;;;2.13;62.43
39891;BME280;25564;53.312;9.790;2023-04-07T04:57:06;101044.84;;;1.99;62.01
39891;BME280;25564;53.312;9.790;2023-04-07T04:59:38;101073.94;;;2.14;62.46
39891;BME280;25564;53.312;9.790;2023-04-07T05:02:10;100990.16;;;1.72;62.33
39891;BME280;25564;53.312;9.790;2023-04-07T05:04:41;101082.81;;;2.20;62.97
39891;BME280;25564;53.312;9.790;2023-04-07T05:07:13;101097.19;;;2.39;62.54
39891;BME280;25564;53.312;9.790;2023-04-07T05:09:44;101076.75;;;2.23;62.19
39891;BME280;25564;53.312;9.790;2023-04-07T05:12:16;101065.47;;;2.25;62.70
39891;BME280;25564;53.312;9.790;2023-04-07T05:14:47;101098.09;;;2.41;62.58
39891;BME280;25564;53.312;9.790;2023-04-07T05:17:19;101058.38;;;2.20;62.29
39891;BME280;25564;53.312;9.790;2023-04-07T05:19:50;101101.69;;;2.45;62.36
39891;BME280;25564;53.312;9.790;2023-04-07T05:22:22;101106.19;;;2.52;61.92
39891;BME280;25564;53.312;9.790;2023-04-07T05:24:54;101026.81;;;2.14;62.52
39891;BME280;25564;53.312;9.790;2023-04-07T05:27:25;101117.00;;;2.67;62.35
39891;BME280;25564;53.312;9.790;2023-04-07T05:29:57;101100.28;;;2.60;62.02
39891;BME280;25564;53.312;9.790;2023-04-07T05:32:29;101101.25;;;2.66;62.00
39891;BME280;25564;53.312;9.790;2023-04-07T05:35:00;101013.78;;;2.17;62.14
39891;BME280;25564;53.312;9.790;2023-04-07T05:37:32;101115.47;;;2.78;62.52
39891;BME280;25564;53.312;9.790;2023-04-07T05:40:03;101121.78;;;2.88;61.96
39891;BME280;25564;53.312;9.790;2023-04-07T05:42:35;101134.22;;;2.98;61.88
39891;BME280;25564;53.312;9.790;2023-04-07T05:45:08;101109.75;;;2.98;62.63
39891;BME280;25564;53.312;9.790;2023-04-07T05:47:39;101121.41;;;3.63;61.89
39891;BME280;25564;53.312;9.790;2023-04-07T05:50:12;101124.97;;;4.86;60.86
39891;BME280;25564;53.312;9.790;2023-04-07T05:52:44;101137.28;;;5.76;58.52
39891;BME280;25564;53.312;9.790;2023-04-07T05:55:16;101113.06;;;6.26;57.52
39891;BME280;25564;53.312;9.790;2023-04-07T05:57:48;101065.69;;;6.37;56.60
39891;BME280;25564;53.312;9.790;2023-04-07T06:00:19;101114.19;;;6.65;56.20
39891;BME280;25564;53.312;9.790;2023-04-07T06:02:52;101150.31;;;6.81;56.62
39891;BME280;25564;53.312;9.790;2023-04-07T06:05:24;101154.59;;;6.64;56.70
39891;BME280;25564;53.312;9.790;2023-04-07T06:07:56;101130.72;;;6.39;57.12
39891;BME280;25564;53.312;9.790;2023-04-07T06:10:27;101085.72;;;6.00;57.96
39891;BME280;25564;53.312;9.790;2023-04-07T06:12:59;101070.56;;;5.74;58.43
39891;BME280;25564;53.312;9.790;2023-04-07T06:15:31;101133.16;;;6.03;58.53
39891;BME280;25564;53.312;9.790;2023-04-07T06:18:03;101154.22;;;6.03;58.12
39891;BME280;25564;53.312;9.790;2023-04-07T06:20:35;101155.91;;;5.93;58.85
39891;BME280;25564;53.312;9.790;2023-04-07T06:23:06;101166.41;;;5.92;58.95
39891;BME280;25564;53.312;9.790;2023-04-07T06:25:37;101170.69;;;5.83;58.76
39891;BME280;25564;53.312;9.790;2023-04-07T06:28:09;101172.44;;;5.80;58.70
39891;BME280;25564;53.312;9.790;2023-04-07T06:30:40;101183.03;;;5.87;58.89
39891;BME280;25564;53.312;9.790;2023-04-07T06:33:12;101137.94;;;5.52;58.20
39891;BME280;25564;53.312;9.790;2023-04-07T06:35:43;101104.50;;;5.44;58.90
39891;BME280;25564;53.312;9.790;2023-04-07T06:38:15;101105.38;;;5.43;58.45
39891;BME280;25564;53.312;9.790;2023-04-07T06:40:46;101104.56;;;5.50;58.45
39891;BME280;25564;53.312;9.790;2023-04-07T06:43:18;101180.56;;;6.03;58.24
39891;BME280;25564;53.312;9.790;2023-04-07T06:45:49;101167.31;;;5.92;58.27
39891;BME280;25564;53.312;9.790;2023-04-07T06:48:22;101099.44;;;5.65;57.96
39891;BME280;25564;53.312;9.790;2023-04-07T06:50:53;101172.81;;;6.19;57.57
39891;BME280;25564;53.312;9.790;2023-04-07T06:53:24;101179.03;;;6.35;57.66
39891;BME280;25564;53.312;9.790;2023-04-07T06:56:07;101194.13;;;6.56;57.57
39891;BME280;25564;53.312;9.790;2023-04-07T06:58:39;101149.25;;;6.51;57.43
39891;BME280;25564;53.312;9.790;2023-04-07T07:01:10;101181.91;;;6.73;56.85
39891;BME280;25564;53.312;9.790;2023-04-07T07:03:42;101197.84;;;6.93;57.19
39891;BME280;25564;53.312;9.790;2023-04-07T07:06:13;101107.09;;;6.54;56.61
39891;BME280;25564;53.312;9.790;2023-04-07T07:08:45;101183.00;;;7.18;56.74
39891;BME280;25564;53.312;9.790;2023-04-07T07:11:17;101190.06;;;7.33;55.90
39891;BME280;25564;53.312;9.790;2023-04-07T07:13:48;101182.16;;;7.40;56.55
39891;BME280;25564;53.312;9.790;2023-04-07T07:16:20;101213.94;;;7.69;55.84
39891;BME280;25564;53.312;9.790;2023-04-07T07:18:54;101161.06;;;7.48;55.62
39891;BME280;25564;53.312;9.790;2023-04-07T07:21:25;101139.06;;;7.44;55.51
39891;BME280;25564;53.312;9.790;2023-04-07T07:23:57;101130.25;;;7.42;55.58
39891;BME280;25564;53.312;9.790;2023-04-07T07:26:28;101206.03;;;7.91;55.17
39891;BME280;25564;53.312;9.790;2023-04-07T07:28:59;101095.03;;;7.36;55.14
39891;BME280;25564;53.312;9.790;2023-04-07T07:31:31;101211.34;;;8.16;55.37
39891;BME280;25564;53.312;9.790;2023-04-07T07:34:02;101157.59;;;8.02;54.99
39891;BME280;25564;53.312;9.790;2023-04-07T07:36:34;101233.38;;;8.58;54.42
39891;BME280;25564;53.312;9.790;2023-04-07T07:39:05;101219.25;;;8.61;54.14
39891;BME280;25564;53.312;9.790;2023-04-07T07:41:37;101232.47;;;8.76;53.93
39891;BME280;25564;53.312;9.790;2023-04-07T07:44:09;101181.38;;;8.40;53.45
39891;BME280;25564;53.312;9.790;2023-04-07T07:46:40;101153.19;;;8.27;53.61
39891;BME280;25564;53.312;9.790;2023-04-07T07:49:12;101230.69;;;8.79;53.35
39891;BME280;25564;53.312;9.790;2023-04-07T07:51:43;101239.47;;;9.01;53.44
39891;BME280;25564;53.312;9.790;2023-04-07T07:54:16;101246.47;;;9.17;53.52
39891;BME280;25564;53.312;9.790;2023-04-07T07:56:48;101255.19;;;9.38;52.47
39891;BME280;25564;53.312;9.790;2023-04-07T07:59:19;101247.22;;;9.44;52.32
39891;BME280;25564;53.312;9.790;2023-04-07T08:01:51;101245.41;;;9.58;52.48
39891;BME280;25564;53.312;9.790;2023-04-07T08:04:23;101256.78;;;9.78;51.97
39891;BME280;25564;53.312;9.790;2023-04-07T08:06:54;101174.81;;;9.43;51.96
39891;BME280;25564;53.312;9.790;2023-04-07T08:09:26;101173.06;;;9.41;51.72
39891;BME280;25564;53.312;9.790;2023-04-07T08:11:57;101183.63;;;9.47;50.89
39891;BME280;25564;53.312;9.790;2023-04-07T08:14:29;101247.03;;;9.85;50.93
39891;BME280;25564;53.312;9.790;2023-04-07T08:17:00;101214.41;;;9.69;51.58
39891;BME280;25564;53.312;9.790;2023-04-07T08:19:32;101251.25;;;10.12;51.00
39891;BME280;25564;53.312;9.790;2023-04-07T08:22:03;101259.19;;;10.23;50.94
39891;BME280;25564;53.312;9.790;2023-04-07T08:24:35;101250.28;;;10.28;50.66
39891;BME280;25564;53.312;9.790;2023-04-07T08:27:06;101220.28;;;10.15;50.17
39891;BME280;25564;53.312;9.790;2023-04-07T08:29:37;101175.28;;;10.06;49.96
39891;BME280;25564;53.312;9.790;2023-04-07T08:32:09;101253.56;;;10.58;49.76
39891;BME280;25564;53.312;9.790;2023-04-07T08:34:40;101264.78;;;10.86;49.52
39891;BME280;25564;53.312;9.790;2023-04-07T08:37:12;101252.38;;;10.88;49.05
39891;BME280;25564;53.312;9.790;2023-04-07T08:39:43;101188.09;;;10.57;49.05
39891;BME280;25564;53.312;9.790;2023-04-07T08:42:15;101219.72;;;10.79;49.03
39891;BME280;25564;53.312;9.790;2023-04-07T08:44:49;101243.34;;;11.04;48.94
39891;BME280;25564;53.312;9.790;2023-04-07T08:47:24;101190.38;;;10.93;48.53
39891;BME280;25564;53.312;9.790;2023-04-07T08:49:59;101244.72;;;11.38;48.37
39891;BME280;25564;53.312;9.790;2023-04-07T08:52:46;101232.28;;;11.42;47.42
39891;BME280;25564;53.312;9.790;2023-04-07T08:55:20;101251.56;;;11.56;48.01
39891;BME280;25564;53.312;9.790;2023-04-07T08:57:52;101269.84;;;11.82;47.91
39891;BME280;25564;53.312;9.790;2023-04-07T09:00:23;101226.56;;;11.69;47.69
39891;BME280;25564;53.312;9.790;2023-04-07T09:02:55;101250.13;;;11.97;47.19
39891;BME280;25564;53.312;9.790;2023-04-07T09:05:27;101258.78;;;12.13;47.28
39891;BME280;25564;53.312;9.790;2023-04-07T09:08:01;101220.03;;;11.95;46.77
39891;BME280;25564;53.312;9.790;2023-04-07T09:10:32;101279.19;;;12.10;46.25
39891;BME280;25564;53.312;9.790;2023-04-07T09:13:04;101195.66;;;11.62;46.30
39891;BME280;25564;53.312;9.790;2023-04-07T09:15:35;101251.16;;;11.88;45.97
39891;BME280;25564;53.312;9.790;2023-04-07T09:18:09;101255.59;;;11.88;46.22
39891;BME280;25564;53.312;9.790;2023-04-07T09:21:00;101204.41;;;11.69;45.50
39891;BME280;25564;53.312;9.790;2023-04-07T09:23:34;101283.66;;;12.10;45.95
39891;BME280;25564;53.312;9.790;2023-04-07T09:26:26;101277.38;;;12.14;44.69
39891;BME280;25564;53.312;9.790;2023-04-07T09:28:59;101185.19;;;11.50;44.97
39891;BME280;25564;53.312;9.790;2023-04-07T09:31:43;101243.13;;;11.91;45.41
39891;BME280;25564;53.312;9.790;2023-04-07T09:34:27;101229.91;;;11.85;44.55
39891;BME280;25564;53.312;9.790;2023-04-07T09:36:59;101214.03;;;11.81;45.04
39891;BME280;25564;53.312;9.790;2023-04-07T09:39:31;101251.69;;;12.11;44.83
39891;BME280;25564;53.312;9.790;2023-04-07T09:42:05;101209.28;;;12.01;44.28
39891;BME280;25564;53.312;9.790;2023-04-07T09:44:39;101204.69;;;12.12;44.37
39891;BME280;25564;53.312;9.790;2023-04-07T09:47:11;101238.75;;;12.44;44.27
39891;BME280;25564;53.312;9.790;2023-04-07T09:49:51;101214.16;;;12.30;43.75
39891;BME280;25564;53.312;9.790;2023-04-07T09:52:49;101269.59;;;12.54;43.01
39891;BME280;25564;53.312;9.790;2023-04-07T09:55:24;101185.22;;;12.10;43.90
39891;BME280;25564;53.312;9.790;2023-04-07T09:57:56;101241.31;;;12.49;43.33
39891;BME280;25564;53.312;9.790;2023-04-07T10:00:27;101179.78;;;12.16;43.02
39891;BME280;25564;53.312;9.790;2023-04-07T10:02:59;101256.34;;;12.51;42.86
39891;BME280;25564;53.312;9.790;2023-04-07T10:05:31;101271.44;;;12.51;42.64
39891;BME280;25564;53.312;9.790;2023-04-07T10:08:05;101266.19;;;12.48;42.76
39891;BME280;25564;53.312;9.790;2023-04-07T10:10:40;101260.91;;;12.46;42.46
39891;BME280;25564;53.312;9.790;2023-04-07T10:13:12;101211.66;;;12.19;42.22
39891;BME280;25564;53.312;9.790;2023-04-07T10:15:45;101269.75;;;12.47;42.42
39891;BME280;25564;53.312;9.790;2023-04-07T10:18:19;101257.28;;;12.49;42.15
39891;BME280;25564;53.312;9.790;2023-04-07T10:20:52;101256.31;;;12.53;42.33
39891;BME280;25564;53.312;9.790;2023-04-07T10:23:31;101216.81;;;12.30;42.04
39891;BME280;25564;53.312;9.790;2023-04-07T10:26:04;101241.25;;;12.52;41.51
39891;BME280;25564;53.312;9.790;2023-04-07T10:28:37;101268.34;;;12.76;41.80
39891;BME280;25564;53.312;9.790;2023-04-07T10:31:11;101254.13;;;12.77;41.81
39891;BME280;25564;53.312;9.790;2023-04-07T10:33:51;101194.06;;;12.60;41.01
39891;BME280;25564;53.312;9.790;2023-04-07T10:36:23;101262.66;;;12.96;41.41
39891;BME280;25564;53.312;9.790;2023-04-07T10:41:41;101218.16;;;12.54;41.44
39891;BME280;25564;53.312;9.790;2023-04-07T10:47:09;101268.50;;;12.67;41.54
39891;BME280;25564;53.312;9.790;2023-04-07T10:52:48;101204.41;;;12.29;41.33
39891;BME280;25564;53.312;9.790;2023-04-07T10:55:46;101274.53;;;12.77;41.61
39891;BME280;25564;53.312;9.790;2023-04-07T10:58:33;101204.22;;;12.39;41.27
39891;BME280;25564;53.312;9.790;2023-04-07T11:03:41;101228.25;;;12.84;41.29
39891;BME280;25564;53.312;9.790;2023-04-07T11:06:13;101267.84;;;13.04;41.47
39891;BME280;25564;53.312;9.790;2023-04-07T11:08:46;101185.91;;;12.69;40.98
39891;BME280;25564;53.312;9.790;2023-04-07T11:11:37;101271.22;;;13.14;40.54
39891;BME280;25564;53.312;9.790;2023-04-07T11:14:10;101251.84;;;13.04;41.06
39891;BME280;25564;53.312;9.790;2023-04-07T11:16:43;101269.41;;;13.14;40.76
39891;BME280;25564;53.312;9.790;2023-04-07T11:19:16;101272.03;;;13.19;41.00
39891;BME280;25564;53.312;9.790;2023-04-07T11:21:47;101185.00;;;12.70;40.43
39891;BME280;25564;53.312;9.790;2023-04-07T11:24:34;101263.25;;;13.12;40.46
39891;BME280;25564;53.312;9.790;2023-04-07T11:27:12;101268.66;;;13.07;40.04
39891;BME280;25564;53.312;9.790;2023-04-07T11:29:44;101269.97;;;12.85;40.15
39891;BME280;25564;53.312;9.790;2023-04-07T11:32:22;101281.47;;;12.87;39.69
39891;BME280;25564;53.312;9.790;2023-04-07T11:34:56;101241.91;;;12.64;40.31
39891;BME280;25564;53.312;9.790;2023-04-07T11:37:28;101255.22;;;12.66;39.82
39891;BME280;25564;53.312;9.790;2023-04-07T11:39:59;101274.75;;;12.65;39.78
39891;BME280;25564;53.312;9.790;2023-04-07T11:42:31;101295.19;;;12.64;40.28
39891;BME280;25564;53.312;9.790;2023-04-07T11:45:04;101284.50;;;12.66;40.63
39891;BME280;25564;53.312;9.790;2023-04-07T11:47:39;101245.81;;;12.47;40.02
39891;BME280;25564;53.312;9.790;2023-04-07T11:50:10;101272.88;;;12.71;39.86
39891;BME280;25564;53.312;9.790;2023-04-07T11:52:46;101286.94;;;12.78;40.00
39891;BME280;25564;53.312;9.790;2023-04-07T11:55:21;101266.53;;;12.78;40.08
39891;BME280;25564;53.312;9.790;2023-04-07T11:57:54;101261.22;;;12.77;39.46
39891;BME280;25564;53.312;9.790;2023-04-07T12:00:35;101268.81;;;12.49;39.25
39891;BME280;25564;53.312;9.790;2023-04-07T12:03:10;101218.66;;;12.26;39.61
39891;BME280;25564;53.312;9.790;2023-04-07T12:05:46;101288.09;;;12.63;39.42
39891;BME280;25564;53.312;9.790;2023-04-07T12:08:19;101264.25;;;12.56;39.59
39891;BME280;25564;53.312;9.790;2023-04-07T12:11:02;101209.66;;;12.33;39.36
39891;BME280;25564;53.312;9.790;2023-04-07T12:13:39;101294.88;;;12.83;39.52
39891;BME280;25564;53.312;9.790;2023-04-07T12:16:14;101296.47;;;12.91;39.30
39891;BME280;25564;53.312;9.790;2023-04-07T12:18:45;101274.06;;;13.03;39.38
39891;BME280;25564;53.312;9.790;2023-04-07T12:21:17;101286.97;;;13.27;39.13
39891;BME280;25564;53.312;9.790;2023-04-07T12:23:49;101278.84;;;13.33;38.96
39891;BME280;25564;53.312;9.790;2023-04-07T12:26:21;101210.09;;;13.04;39.00
39891;BME280;25564;53.312;9.790;2023-04-07T12:28:54;101277.72;;;13.45;38.97
39891;BME280;25564;53.312;9.790;2023-04-07T12:31:26;101297.00;;;13.56;38.88
39891;BME280;25564;53.312;9.790;2023-04-07T12:34:01;101268.44;;;13.63;38.90
39891;BME280;25564;53.312;9.790;2023-04-07T12:36:33;101276.91;;;13.82;38.87
39891;BME280;25564;53.312;9.790;2023-04-07T12:39:05;101249.59;;;13.70;38.99
39891;BME280;25564;53.312;9.790;2023-04-07T12:41:36;101214.88;;;13.33;38.90
39891;BME280;25564;53.312;9.790;2023-04-07T12:44:09;101284.22;;;13.73;38.38
39891;BME280;25564;53.312;9.790;2023-04-07T12:46:40;101287.63;;;13.80;38.27
39891;BME280;25564;53.312;9.790;2023-04-07T12:49:13;101266.59;;;13.65;38.16
39891;BME280;25564;53.312;9.790;2023-04-07T12:51:44;101265.03;;;13.55;38.34
39891;BME280;25564;53.312;9.790;2023-04-07T12:54:16;101280.16;;;13.54;38.31
39891;BME280;25564;53.312;9.790;2023-04-07T12:56:47;101296.03;;;13.60;38.32
39891;BME280;25564;53.312;9.790;2023-04-07T12:59:18;101288.16;;;13.54;38.11
39891;BME280;25564;53.312;9.790;2023-04-07T13:01:50;101289.88;;;13.57;38.21
39891;BME280;25564;53.312;9.790;2023-04-07T13:04:22;101253.78;;;13.42;38.64
39891;BME280;25564;53.312;9.790;2023-04-07T13:06:55;101263.94;;;13.65;38.42
39891;BME280;25564;53.312;9.790;2023-04-07T13:09:26;101234.63;;;13.63;38.01
39891;BME280;25564;53.312;9.790;2023-04-07T13:11:58;101270.81;;;13.77;38.05
39891;BME280;25564;53.312;9.790;2023-04-07T13:14:29;101271.66;;;13.79;37.82
39891;BME280;25564;53.312;9.790;2023-04-07T13:17:00;101275.47;;;13.67;37.85
39891;BME280;25564;53.312;9.790;2023-04-07T13:19:32;101283.34;;;13.71;37.88
39891;BME280;25564;53.312;9.790;2023-04-07T13:22:05;101271.81;;;13.71;37.49
39891;BME280;25564;53.312;9.790;2023-04-07T13:24:36;101286.81;;;13.77;37.58
39891;BME280;25564;53.312;9.790;2023-04-07T13:27:08;101225.38;;;13.41;37.40
39891;BME280;25564;53.312;9.790;2023-04-07T13:29:39;101284.25;;;13.72;37.34
39891;BME280;25564;53.312;9.790;2023-04-07T13:32:10;101288.63;;;13.74;37.04
39891;BME280;25564;53.312;9.790;2023-04-07T13:34:45;101274.50;;;13.69;37.22
39891;BME280;25564;53.312;9.790;2023-04-07T13:37:17;101295.91;;;13.66;37.08